createdAt,value
2017-12-22T00:01:46.297Z,15.77
2017-12-22T00:04:15.957Z,15.20
2017-12-22T00:06:44.144Z,17.00
2017-12-22T00:09:12.314Z,17.00
2017-12-22T00:11:40.458Z,16.50
2017-12-22T00:14:08.628Z,15.00
2017-12-22T00:16:36.792Z,18.50
2017-12-22T00:19:05.717Z,20.37
2017-12-22T00:21:33.895Z,18.73
2017-12-22T00:24:02.048Z,21.70
2017-12-22T00:26:30.188Z,18.83
2017-12-22T00:28:59.112Z,19.70
2017-12-22T00:31:27.310Z,20.60
2017-12-22T00:33:55.510Z,23.87
2017-12-22T00:36:23.626Z,24.27
2017-12-22T00:38:51.785Z,22.90
2017-12-22T00:41:19.942Z,23.53
2017-12-22T00:43:48.862Z,24.67
2017-12-22T00:46:16.992Z,22.63
2017-12-22T00:48:45.135Z,23.50
2017-12-22T00:51:13.298Z,22.47
2017-12-22T00:53:41.443Z,18.03
2017-12-22T00:56:09.587Z,25.77
2017-12-22T00:58:38.483Z,25.80
2017-12-22T01:01:06.610Z,35.73
2017-12-22T01:03:34.769Z,30.43
2017-12-22T01:06:02.922Z,26.17
2017-12-22T01:08:31.076Z,20.73
2017-12-22T01:10:59.210Z,22.70
2017-12-22T01:13:27.358Z,23.20
2017-12-22T01:16:01.044Z,26.30
2017-12-22T01:18:34.778Z,28.23
2017-12-22T01:21:02.909Z,22.53
2017-12-22T01:23:31.103Z,23.40
2017-12-22T01:25:59.360Z,23.43
2017-12-22T01:28:27.504Z,24.83
2017-12-22T01:30:56.421Z,21.60
2017-12-22T01:33:24.594Z,25.00
2017-12-22T01:35:52.731Z,21.80
2017-12-22T01:38:20.871Z,29.03
2017-12-22T01:40:49.018Z,22.60
2017-12-22T01:43:17.260Z,21.77
2017-12-22T01:45:46.142Z,22.97
2017-12-22T01:48:15.050Z,20.00
2017-12-22T01:50:43.264Z,23.77
2017-12-22T01:53:11.409Z,22.07
2017-12-22T01:55:39.550Z,18.87
2017-12-22T01:58:08.441Z,21.40
2017-12-22T02:00:36.590Z,20.93
2017-12-22T02:03:04.728Z,20.50
2017-12-22T02:05:32.884Z,18.27
2017-12-22T02:08:01.005Z,22.47
2017-12-22T02:10:29.192Z,20.43
2017-12-22T02:12:58.155Z,18.33
2017-12-22T02:15:26.289Z,19.60
2017-12-22T02:17:54.420Z,19.50
2017-12-22T02:20:23.325Z,18.70
2017-12-22T02:22:51.449Z,22.63
2017-12-22T02:25:19.591Z,21.93
2017-12-22T02:27:47.726Z,19.77
2017-12-22T02:30:15.872Z,20.67
2017-12-22T02:32:44.006Z,17.90
2017-12-22T02:35:12.150Z,18.90
2017-12-22T02:37:41.038Z,19.70
2017-12-22T02:40:09.950Z,19.17
2017-12-22T02:42:38.073Z,20.00
2017-12-22T02:45:06.275Z,16.50
2017-12-22T02:47:35.193Z,19.30
2017-12-22T02:50:03.361Z,22.00
2017-12-22T02:52:31.495Z,22.93
2017-12-22T02:55:00.387Z,18.37
2017-12-22T02:57:29.291Z,23.60
2017-12-22T02:59:57.417Z,22.80
2017-12-22T03:02:25.562Z,20.17
2017-12-22T03:04:53.678Z,21.10
2017-12-22T03:07:21.813Z,22.00
2017-12-22T03:09:49.946Z,19.70
2017-12-22T03:12:18.096Z,19.50
2017-12-22T03:14:46.230Z,18.50
2017-12-22T03:17:14.391Z,21.53
2017-12-22T03:19:42.516Z,21.67
2017-12-22T03:22:11.430Z,18.67
2017-12-22T03:24:39.566Z,20.70
2017-12-22T03:27:07.693Z,21.63
2017-12-22T03:29:35.840Z,19.70
2017-12-22T03:32:03.958Z,20.27
2017-12-22T03:34:32.109Z,21.40
2017-12-22T03:37:00.234Z,23.63
2017-12-22T03:39:29.240Z,27.33
2017-12-22T03:41:58.130Z,27.67
2017-12-22T03:44:27.033Z,33.50
2017-12-22T03:46:55.153Z,27.73
2017-12-22T03:49:24.129Z,32.80
2017-12-22T03:51:52.218Z,23.60
2017-12-22T03:54:20.367Z,27.10
2017-12-22T03:56:48.497Z,25.83
2017-12-22T03:59:16.640Z,24.10
2017-12-22T04:01:44.793Z,29.27
2017-12-22T04:04:12.934Z,27.73
2017-12-22T04:06:41.077Z,27.40
2017-12-22T04:09:10.766Z,26.90
2017-12-22T04:11:38.901Z,25.90
2017-12-22T04:14:07.068Z,40.20
2017-12-22T04:16:35.435Z,26.90
2017-12-22T04:19:03.683Z,25.97
2017-12-22T04:21:32.183Z,25.93
2017-12-22T04:24:00.505Z,24.43
2017-12-22T04:26:28.706Z,26.20
2017-12-22T04:28:56.852Z,31.33
2017-12-22T04:31:25.817Z,26.03
2017-12-22T04:33:53.978Z,25.10
2017-12-22T04:36:22.187Z,25.83
2017-12-22T04:38:50.315Z,24.13
2017-12-22T04:41:18.638Z,24.00
2017-12-22T04:43:46.814Z,24.17
2017-12-22T04:46:14.983Z,25.17
2017-12-22T04:48:43.154Z,22.33
2017-12-22T04:51:11.794Z,40.73
2017-12-22T04:53:39.989Z,37.00
2017-12-22T04:56:08.156Z,23.53
2017-12-22T04:58:36.359Z,27.07
2017-12-22T05:01:05.352Z,24.10
2017-12-22T05:03:33.597Z,21.97
2017-12-22T05:06:01.989Z,23.73
2017-12-22T05:08:30.170Z,21.60
2017-12-22T05:10:59.184Z,20.10
2017-12-22T05:13:27.449Z,21.97
2017-12-22T05:15:55.790Z,29.83
2017-12-22T05:18:24.103Z,26.33
2017-12-22T05:20:52.241Z,25.00
2017-12-22T05:23:20.477Z,22.40
2017-12-22T05:25:48.682Z,22.13
2017-12-22T05:28:16.835Z,22.30
2017-12-22T05:30:44.966Z,23.70
2017-12-22T05:33:13.110Z,23.37
2017-12-22T05:35:41.363Z,25.50
2017-12-22T05:38:09.490Z,33.43
2017-12-22T05:40:38.378Z,24.23
2017-12-22T05:43:07.289Z,28.67
2017-12-22T05:45:35.418Z,35.53
2017-12-22T05:48:05.072Z,20.90
2017-12-22T05:50:33.198Z,24.60
2017-12-22T05:53:01.338Z,29.27
2017-12-22T05:55:29.457Z,41.40
2017-12-22T05:57:58.373Z,36.57
2017-12-22T06:00:26.619Z,34.80
2017-12-22T06:02:54.760Z,24.83
2017-12-22T06:05:22.886Z,23.40
2017-12-22T06:07:51.042Z,20.20
2017-12-22T06:10:19.940Z,19.30
2017-12-22T06:12:48.091Z,19.03
2017-12-22T06:15:16.223Z,19.10
2017-12-22T06:17:44.366Z,16.33
2017-12-22T06:20:12.518Z,16.10
2017-12-22T06:22:41.414Z,17.07
2017-12-22T06:25:09.641Z,17.50
2017-12-22T06:27:37.770Z,18.43
2017-12-22T06:30:06.052Z,15.63
2017-12-22T06:32:34.223Z,17.70
2017-12-22T06:35:02.356Z,14.30
2017-12-22T06:37:30.538Z,20.10
2017-12-22T06:39:59.489Z,15.00
2017-12-22T06:42:27.637Z,23.03
2017-12-22T06:44:55.844Z,12.17
2017-12-22T06:47:23.988Z,13.53
2017-12-22T06:49:52.136Z,11.17
2017-12-22T06:52:20.282Z,12.87
2017-12-22T06:54:48.539Z,14.60
2017-12-22T06:57:16.775Z,13.07
2017-12-22T06:59:44.917Z,11.40
2017-12-22T07:02:13.078Z,9.40
2017-12-22T07:04:42.145Z,14.00
2017-12-22T07:07:10.393Z,12.77
2017-12-22T07:09:38.498Z,13.50
2017-12-22T07:12:06.639Z,11.90
2017-12-22T07:14:34.765Z,13.10
2017-12-22T07:17:02.925Z,14.33
2017-12-22T07:19:31.091Z,13.27
2017-12-22T07:21:59.238Z,12.53
2017-12-22T07:24:27.386Z,15.40
2017-12-22T07:26:55.602Z,15.00
2017-12-22T07:29:24.104Z,15.13
2017-12-22T07:31:52.264Z,12.53
2017-12-22T07:34:20.439Z,14.50
2017-12-22T07:36:48.578Z,16.23
2017-12-22T07:39:16.750Z,16.80
2017-12-22T07:41:44.882Z,18.77
2017-12-22T07:44:13.067Z,14.80
2017-12-22T07:46:41.192Z,18.57
2017-12-22T07:49:09.430Z,16.63
2017-12-22T07:51:38.350Z,17.07
2017-12-22T07:54:07.238Z,13.40
2017-12-22T07:56:35.406Z,15.90
2017-12-22T07:59:03.589Z,13.80
2017-12-22T08:01:32.612Z,12.87
2017-12-22T08:04:00.859Z,15.30
2017-12-22T08:06:29.815Z,21.70
2017-12-22T08:08:58.096Z,15.50
2017-12-22T08:11:26.439Z,14.67
2017-12-22T08:13:54.676Z,10.53
2017-12-22T08:16:22.955Z,14.13
2017-12-22T08:18:51.149Z,15.50
2017-12-22T08:21:19.479Z,11.37
2017-12-22T08:23:47.615Z,12.20
2017-12-22T08:26:15.730Z,11.80
2017-12-22T08:28:43.886Z,11.23
2017-12-22T08:31:12.028Z,11.07
2017-12-22T08:33:40.178Z,11.87
2017-12-22T08:36:08.311Z,12.03
2017-12-22T08:38:36.526Z,10.83
2017-12-22T08:41:04.597Z,10.23
2017-12-22T08:43:32.754Z,11.73
2017-12-22T08:46:00.955Z,11.83
2017-12-22T08:48:29.094Z,10.13
2017-12-22T08:50:57.994Z,11.20
2017-12-22T08:53:26.142Z,10.07
2017-12-22T08:55:54.284Z,8.83
2017-12-22T08:58:22.452Z,10.03
2017-12-22T09:00:50.602Z,9.00
2017-12-22T09:03:18.815Z,6.80
2017-12-22T09:05:47.014Z,9.40
2017-12-22T09:08:15.138Z,8.60
2017-12-22T09:10:43.299Z,6.47
2017-12-22T09:13:11.451Z,5.50
2017-12-22T09:15:39.570Z,6.27
2017-12-22T09:18:08.462Z,6.73
2017-12-22T09:20:38.102Z,5.37
2017-12-22T09:23:06.247Z,5.50
2017-12-22T09:25:34.386Z,5.37
2017-12-22T09:28:02.509Z,5.47
2017-12-22T09:30:31.415Z,5.70
2017-12-22T09:32:59.542Z,5.80
2017-12-22T09:35:27.863Z,10.10
2017-12-22T09:37:56.009Z,5.10
2017-12-22T09:40:24.230Z,6.77
2017-12-22T09:42:52.369Z,5.07
2017-12-22T09:48:51.836Z,5.27
2017-12-22T09:51:19.974Z,6.00
2017-12-22T09:53:49.304Z,5.80
2017-12-22T09:56:17.583Z,6.50
2017-12-22T09:58:46.485Z,6.10
2017-12-22T10:01:14.694Z,7.33
2017-12-22T10:03:42.820Z,4.87
2017-12-22T10:06:10.970Z,5.13
2017-12-22T10:08:39.102Z,6.13
2017-12-22T10:11:08.818Z,4.83
2017-12-22T10:13:36.942Z,5.47
2017-12-22T10:16:05.178Z,4.70
2017-12-22T10:18:33.312Z,5.27
2017-12-22T10:21:02.308Z,5.40
2017-12-22T10:23:31.223Z,5.40
2017-12-22T10:25:59.415Z,4.70
2017-12-22T10:28:27.534Z,5.40
2017-12-22T10:30:56.518Z,4.50
2017-12-22T10:33:24.657Z,4.97
2017-12-22T10:35:52.807Z,4.63
2017-12-22T10:38:20.940Z,5.00
2017-12-22T10:40:49.079Z,5.17
2017-12-22T10:43:17.198Z,5.20
2017-12-22T10:45:45.319Z,5.47
2017-12-22T10:48:13.459Z,4.50
2017-12-22T10:50:41.684Z,4.60
2017-12-22T10:53:09.817Z,4.67
2017-12-22T10:55:37.948Z,4.60
2017-12-22T10:58:06.251Z,5.23
2017-12-22T11:00:34.372Z,5.10
2017-12-22T11:03:04.027Z,5.77
2017-12-22T11:05:32.219Z,4.83
2017-12-22T11:08:00.413Z,4.67
2017-12-22T11:10:28.603Z,3.80
2017-12-22T11:12:56.739Z,3.63
2017-12-22T11:15:24.904Z,3.77
2017-12-22T11:17:53.022Z,4.17
2017-12-22T11:20:21.250Z,7.23
2017-12-22T11:22:49.391Z,3.90
2017-12-22T11:25:17.531Z,3.93
2017-12-22T11:27:45.649Z,4.50
2017-12-22T11:30:13.854Z,4.20
2017-12-22T11:32:42.320Z,3.90
2017-12-22T11:35:10.469Z,3.63
2017-12-22T11:37:38.635Z,4.10
2017-12-22T11:40:06.837Z,4.00
2017-12-22T11:42:34.982Z,4.57
2017-12-22T11:45:03.171Z,4.20
2017-12-22T11:47:32.171Z,4.00
2017-12-22T11:50:00.302Z,3.90
2017-12-22T11:52:28.423Z,4.40
2017-12-22T11:54:56.758Z,4.90
2017-12-22T11:57:24.878Z,4.67
2017-12-22T11:59:53.010Z,8.40
2017-12-22T12:02:21.130Z,6.03
2017-12-22T12:04:49.320Z,6.37
2017-12-22T12:07:18.219Z,4.70
2017-12-22T12:09:47.107Z,4.20
2017-12-22T12:12:16.017Z,5.80
2017-12-22T12:14:44.174Z,5.50
2017-12-22T12:17:13.073Z,8.30
2017-12-22T12:19:41.246Z,8.50
2017-12-22T12:22:09.430Z,4.80
2017-12-22T12:24:37.569Z,6.00
2017-12-22T12:27:06.498Z,5.10
2017-12-22T12:29:34.615Z,5.07
2017-12-22T12:32:02.781Z,4.50
2017-12-22T12:34:30.897Z,6.60
2017-12-22T12:36:59.692Z,9.20
2017-12-22T12:39:27.818Z,11.20
2017-12-22T12:41:56.838Z,9.27
2017-12-22T12:44:24.973Z,9.07
2017-12-22T12:46:53.121Z,8.90
2017-12-22T12:49:21.300Z,11.00
2017-12-22T12:51:49.424Z,6.37
2017-12-22T12:54:18.306Z,6.10
2017-12-22T12:56:46.442Z,7.10
2017-12-22T12:59:14.567Z,21.97
2017-12-22T13:01:42.718Z,27.33
2017-12-22T13:04:11.642Z,38.87
2017-12-22T13:06:39.784Z,10.30
2017-12-22T13:09:07.919Z,11.97
2017-12-22T13:11:36.146Z,9.90
2017-12-22T13:14:04.280Z,9.00
2017-12-22T13:16:32.382Z,6.17
2017-12-22T13:19:00.517Z,7.47
2017-12-22T13:21:28.642Z,8.10
2017-12-22T13:23:56.773Z,8.47
2017-12-22T13:26:25.650Z,7.53
2017-12-22T13:28:54.548Z,9.87
2017-12-22T13:31:23.443Z,7.33
2017-12-22T13:33:52.367Z,10.20
2017-12-22T13:36:20.495Z,14.70
2017-12-22T13:38:48.701Z,11.30
2017-12-22T13:41:16.842Z,17.53
2017-12-22T13:43:45.769Z,14.77
2017-12-22T13:46:13.906Z,10.30
2017-12-22T13:48:42.824Z,8.63
2017-12-22T13:51:10.995Z,18.80
2017-12-22T13:53:39.169Z,11.90
2017-12-22T13:56:07.331Z,20.43
2017-12-22T13:58:35.610Z,14.67
2017-12-22T14:01:03.760Z,11.33
2017-12-22T14:03:31.925Z,13.67
2017-12-22T14:06:00.848Z,14.97
2017-12-22T14:08:28.987Z,15.43
2017-12-22T14:10:57.889Z,16.63
2017-12-22T14:13:26.784Z,8.20
2017-12-22T14:15:54.930Z,8.30
2017-12-22T14:18:23.059Z,13.43
2017-12-22T14:20:51.184Z,9.00
2017-12-22T14:23:20.142Z,10.93
2017-12-22T14:25:48.250Z,7.23
2017-12-22T14:28:16.386Z,13.70
2017-12-22T14:30:44.543Z,8.07
2017-12-22T14:33:12.686Z,6.20
2017-12-22T14:35:40.807Z,6.37
2017-12-22T14:38:08.939Z,9.40
2017-12-22T14:40:37.098Z,16.37
2017-12-22T14:43:05.239Z,16.43
2017-12-22T14:45:34.163Z,17.37
2017-12-22T14:48:02.316Z,17.53
2017-12-22T14:50:30.476Z,10.27
2017-12-22T14:52:59.369Z,12.27
2017-12-22T14:55:28.275Z,15.87
2017-12-22T15:00:30.758Z,16.60
2017-12-22T15:02:58.911Z,16.83
2017-12-22T15:05:27.830Z,17.67
2017-12-22T15:07:55.972Z,18.57
2017-12-22T15:10:24.867Z,15.20
2017-12-22T15:12:53.785Z,17.30
2017-12-22T15:15:21.927Z,22.93
2017-12-22T15:17:50.854Z,12.13
2017-12-22T15:20:18.975Z,10.13
2017-12-22T15:22:47.892Z,11.10
2017-12-22T15:25:16.038Z,14.83
2017-12-22T15:27:44.938Z,18.60
2017-12-22T15:30:13.071Z,21.67
2017-12-22T15:32:41.274Z,23.43
2017-12-22T15:35:09.409Z,18.40
2017-12-22T15:37:37.525Z,16.33
2017-12-22T15:40:06.728Z,12.60
2017-12-22T15:42:35.612Z,18.97
2017-12-22T15:45:03.762Z,12.17
2017-12-22T15:47:31.889Z,15.00
2017-12-22T15:50:00.040Z,19.90
2017-12-22T15:52:28.184Z,11.87
2017-12-22T15:54:56.314Z,10.13
2017-12-22T15:57:24.492Z,16.73
2017-12-22T15:59:52.658Z,11.63
2017-12-22T16:02:21.172Z,12.27
2017-12-22T16:04:49.338Z,14.33
2017-12-22T16:07:17.454Z,14.27
2017-12-22T16:09:45.656Z,10.87
2017-12-22T16:12:13.817Z,11.10
2017-12-22T16:14:41.935Z,9.40
2017-12-22T16:17:10.920Z,9.83
2017-12-22T16:19:39.110Z,10.53
2017-12-22T16:22:08.063Z,13.33
2017-12-22T16:24:36.201Z,14.87
2017-12-22T16:27:04.328Z,14.40
2017-12-22T16:29:32.457Z,16.10
2017-12-22T16:32:00.666Z,12.80
2017-12-22T16:34:28.816Z,11.43
2017-12-22T16:36:56.944Z,10.53
2017-12-22T16:39:25.445Z,9.90
2017-12-22T16:41:53.577Z,10.40
2017-12-22T16:44:22.457Z,11.07
2017-12-22T16:46:51.368Z,10.23
2017-12-22T16:49:19.503Z,11.77
2017-12-22T16:51:47.639Z,12.20
2017-12-22T16:54:15.764Z,12.47
2017-12-22T16:56:44.709Z,11.43
2017-12-22T16:59:12.886Z,15.10
2017-12-22T17:01:41.114Z,17.23
2017-12-22T17:04:10.023Z,10.00
2017-12-22T17:06:38.181Z,10.77
2017-12-22T17:09:06.322Z,8.90
2017-12-22T17:11:34.459Z,8.20
2017-12-22T17:14:02.632Z,9.50
2017-12-22T17:16:30.888Z,10.13
2017-12-22T17:18:59.177Z,8.67
2017-12-22T17:21:27.443Z,12.73
2017-12-22T17:23:55.570Z,12.20
2017-12-22T17:26:24.532Z,10.60
2017-12-22T17:28:52.655Z,9.00
2017-12-22T17:31:20.798Z,10.97
2017-12-22T17:33:49.193Z,10.43
2017-12-22T17:36:18.132Z,10.20
2017-12-22T17:38:46.267Z,9.43
2017-12-22T17:41:14.456Z,16.17
2017-12-22T17:43:42.579Z,12.30
2017-12-22T17:46:10.784Z,28.57
2017-12-22T17:48:38.921Z,22.80
2017-12-22T17:51:07.080Z,21.27
2017-12-22T17:53:35.240Z,16.17
2017-12-22T17:56:03.393Z,17.13
2017-12-22T17:58:31.572Z,12.13
2017-12-22T18:00:59.698Z,10.60
2017-12-22T18:03:28.592Z,13.00
2017-12-22T18:05:57.573Z,11.53
2017-12-22T18:08:25.737Z,14.67
2017-12-22T19:32:52.881Z,95.37
2017-12-22T19:35:21.064Z,112.77
2017-12-22T19:37:50.004Z,106.80
2017-12-22T19:40:18.281Z,137.20
2017-12-22T19:42:46.457Z,33.47
2017-12-22T19:45:14.699Z,138.03
2017-12-22T19:47:42.870Z,30.13
2017-12-22T19:50:11.068Z,34.33
2017-12-22T19:52:39.301Z,29.83
2017-12-22T19:55:07.527Z,87.30
2017-12-22T19:57:35.737Z,84.30
2017-12-22T20:00:03.975Z,52.83
2017-12-22T20:02:32.098Z,33.20
2017-12-22T20:05:00.301Z,29.67
2017-12-22T20:07:28.558Z,49.13
2017-12-22T20:09:57.581Z,60.80
2017-12-22T20:12:25.774Z,149.87
2017-12-22T20:14:53.962Z,44.13
2017-12-22T20:17:22.085Z,37.87
2017-12-22T20:19:50.290Z,47.33
2017-12-22T20:22:18.480Z,37.47
2017-12-22T20:24:46.691Z,35.90
2017-12-22T20:27:14.857Z,31.37
2017-12-22T20:29:43.852Z,30.40
2017-12-22T20:32:12.815Z,30.97
2017-12-22T20:34:41.020Z,28.57
2017-12-22T20:37:09.218Z,22.93
2017-12-22T20:39:37.445Z,27.33
2017-12-22T20:42:06.404Z,30.17
2017-12-22T20:44:34.574Z,32.70
2017-12-22T20:47:02.790Z,34.50
2017-12-22T20:49:31.833Z,35.10
2017-12-22T20:52:00.373Z,31.73
2017-12-22T20:54:28.550Z,31.20
2017-12-22T20:56:56.732Z,32.03
2017-12-22T20:59:24.904Z,35.10
2017-12-22T21:01:54.049Z,33.77
2017-12-22T21:04:22.215Z,30.80
2017-12-22T21:06:50.442Z,29.20
2017-12-22T21:09:18.624Z,35.53
2017-12-22T21:11:46.781Z,63.77
2017-12-22T21:14:14.977Z,31.00
2017-12-22T21:16:43.142Z,55.17
2017-12-22T21:19:11.322Z,33.03
2017-12-22T21:21:39.503Z,29.10
2017-12-22T21:24:07.675Z,31.83
2017-12-22T21:26:35.836Z,46.83
2017-12-22T21:29:04.029Z,30.87
2017-12-22T21:31:32.210Z,87.93
2017-12-22T21:34:00.415Z,33.37
2017-12-22T21:36:29.346Z,40.03
2017-12-22T21:38:57.464Z,33.63
2017-12-22T21:41:26.426Z,28.70
2017-12-22T21:43:54.587Z,25.93
2017-12-22T21:46:22.766Z,25.83
2017-12-22T21:48:50.954Z,28.90
2017-12-22T21:51:19.123Z,33.77
2017-12-22T21:53:47.305Z,46.17
2017-12-22T21:56:15.484Z,30.93
2017-12-22T21:58:44.432Z,49.17
2017-12-22T22:01:12.618Z,41.60
2017-12-22T22:03:40.777Z,27.10
2017-12-22T22:06:08.948Z,26.90
2017-12-22T22:08:37.139Z,33.60
2017-12-22T22:11:05.361Z,27.40
2017-12-22T22:13:34.289Z,27.17
2017-12-22T22:16:02.550Z,29.30
2017-12-22T22:18:30.720Z,27.10
2017-12-22T22:20:58.901Z,29.37
2017-12-22T22:23:27.068Z,27.90
2017-12-22T22:25:55.246Z,34.00
2017-12-22T22:28:23.432Z,25.83
2017-12-22T22:30:52.837Z,25.93
2017-12-22T22:33:21.034Z,27.23
2017-12-22T22:35:49.280Z,31.03
2017-12-22T22:38:17.502Z,32.30
2017-12-22T22:40:46.374Z,25.33
2017-12-22T22:43:14.587Z,25.03
2017-12-22T22:45:42.872Z,48.43
2017-12-22T22:48:11.057Z,31.40
2017-12-22T22:50:39.222Z,26.57
2017-12-22T22:53:07.433Z,45.07
2017-12-22T22:55:35.603Z,25.23
2017-12-22T22:58:03.785Z,37.87
2017-12-22T23:00:31.969Z,37.73
2017-12-22T23:03:00.870Z,30.17
2017-12-22T23:05:29.025Z,33.90
2017-12-22T23:07:57.991Z,43.07
2017-12-22T23:10:26.171Z,34.40
2017-12-22T23:12:54.358Z,43.00
2017-12-22T23:15:23.343Z,44.10
2017-12-22T23:17:51.548Z,29.20
2017-12-22T23:20:19.671Z,26.43
2017-12-22T23:22:47.817Z,29.57
2017-12-22T23:25:15.999Z,29.30
2017-12-22T23:27:44.125Z,28.30
2017-12-22T23:30:12.315Z,39.23
2017-12-22T23:32:40.496Z,32.23
2017-12-22T23:35:08.634Z,27.00
2017-12-22T23:37:36.793Z,41.13
2017-12-22T23:40:05.730Z,30.30
2017-12-22T23:42:33.866Z,27.77
2017-12-22T23:45:02.003Z,31.93
2017-12-22T23:47:30.221Z,30.33
2017-12-22T23:49:58.387Z,28.97
2017-12-22T23:52:27.320Z,25.17
2017-12-22T23:54:55.463Z,22.60
2017-12-22T23:57:23.593Z,26.33
2017-12-22T23:59:51.770Z,24.27
